Time;durP1;ratioP1;P1;durP2;ratioP2;P2;SDS_P1;SDS_P2;PMS_P1;PMS_P2;Temp;Humidity;BMP_temperature;BMP_pressure;BME280_temperature;BME280_humidity;BME280_pressure;Samples;Min_cycle;Max_cycle;Signal;HPM_P1;HPM_P2
2023/04/30 00:01:01;;;;;;;9.87;5.97;;;9.20;99.90;;;;;;4211847;28;20286;-74
2023/04/30 00:03:04;;;;;;;13.33;5.80;;;9.20;99.90;;;;;;4208286;28;20266;-74
2023/04/30 00:05:07;;;;;;;10.70;5.63;;;9.10;99.90;;;;;;4211673;28;20203;-74
2023/04/30 00:07:11;;;;;;;11.27;6.23;;;9.10;99.90;;;;;;4210138;28;20234;-74
2023/04/30 00:09:12;;;;;;;9.60;6.07;;;9.00;99.90;;;;;;4206646;28;20253;-74
2023/04/30 00:11:17;;;;;;;7.40;5.07;;;8.90;99.90;;;;;;4213048;28;20757;-74
2023/04/30 00:13:19;;;;;;;7.53;4.87;;;8.90;99.90;;;;;;4206380;28;20228;-74
2023/04/30 00:15:21;;;;;;;8.33;4.80;;;8.90;99.90;;;;;;4209373;28;20300;-74
2023/04/30 00:17:23;;;;;;;8.13;4.50;;;8.80;99.90;;;;;;4210149;28;20292;-74
2023/04/30 00:19:26;;;;;;;6.67;4.87;;;8.70;99.90;;;;;;4209080;28;20220;-74
2023/04/30 00:21:29;;;;;;;7.07;4.30;;;8.80;99.90;;;;;;4205325;28;20386;-74
2023/04/30 00:23:31;;;;;;;5.93;4.03;;;8.70;99.90;;;;;;4213240;28;20208;-74
2023/04/30 00:25:32;;;;;;;9.03;4.40;;;8.70;99.90;;;;;;4211639;28;20825;-74
2023/04/30 00:27:34;;;;;;;6.87;4.30;;;8.60;99.90;;;;;;4209693;28;20213;-74
2023/04/30 00:29:36;;;;;;;6.40;4.07;;;8.60;99.90;;;;;;4207263;28;20303;-74
2023/04/30 00:31:38;;;;;;;10.27;4.00;;;8.60;99.90;;;;;;4207918;28;20221;-74
2023/04/30 00:33:40;;;;;;;7.67;3.60;;;8.60;99.90;;;;;;4209625;28;20580;-74
2023/04/30 00:35:44;;;;;;;6.50;4.00;;;8.50;99.90;;;;;;4209625;28;20296;-74
2023/04/30 00:37:46;;;;;;;7.33;3.47;;;8.50;99.90;;;;;;4210335;28;20244;-74
2023/04/30 00:39:48;;;;;;;4.97;3.30;;;8.40;99.90;;;;;;4212085;28;20201;-74
2023/04/30 00:41:50;;;;;;;7.37;3.80;;;8.40;99.90;;;;;;4214158;28;20917;-73
2023/04/30 00:43:52;;;;;;;5.30;3.33;;;8.60;99.90;;;;;;4208966;28;20463;-74
2023/04/30 00:45:54;;;;;;;8.53;3.00;;;8.30;99.90;;;;;;4213677;28;20225;-74
2023/04/30 00:47:55;;;;;;;4.70;2.87;;;8.30;99.90;;;;;;4208867;28;20305;-74
2023/04/30 00:49:57;;;;;;;4.33;2.40;;;8.20;99.90;;;;;;4207675;28;20213;-74
2023/04/30 00:52:01;;;;;;;4.37;2.90;;;8.10;99.90;;;;;;4210558;28;20478;-74
2023/04/30 00:54:04;;;;;;;5.37;3.03;;;8.10;99.90;;;;;;4206865;28;20937;-74
2023/04/30 00:56:08;;;;;;;3.90;2.30;;;8.10;99.90;;;;;;4212740;28;20454;-74
2023/04/30 00:58:11;;;;;;;4.90;2.70;;;8.10;99.90;;;;;;4208943;28;20475;-74
2023/04/30 01:00:13;;;;;;;4.67;2.20;;;8.00;99.90;;;;;;4212116;28;20473;-74
2023/04/30 01:02:16;;;;;;;4.93;2.80;;;8.00;99.90;;;;;;4204984;28;20487;-74
2023/04/30 01:04:18;;;;;;;5.03;2.60;;;8.00;99.90;;;;;;4209698;28;20933;-74
2023/04/30 01:06:20;;;;;;;3.43;2.53;;;7.90;99.90;;;;;;4211573;28;20862;-75
2023/04/30 01:08:23;;;;;;;4.27;2.30;;;7.80;99.90;;;;;;4210838;28;20464;-74
2023/04/30 01:10:36;;;;;;;5.97;2.90;;;7.80;99.90;;;;;;4206897;28;20578;-74
2023/04/30 01:12:43;;;;;;;6.10;3.10;;;7.90;99.90;;;;;;4208310;28;21029;-74
2023/04/30 01:14:54;;;;;;;5.53;2.57;;;7.80;99.90;;;;;;4208485;28;20466;-74
2023/04/30 01:17:04;;;;;;;6.87;2.60;;;7.80;99.90;;;;;;4211970;28;20560;-73
2023/04/30 01:19:20;;;;;;;3.83;2.77;;;7.70;99.90;;;;;;4208555;28;20452;-75
2023/04/30 01:21:23;;;;;;;6.07;3.17;;;7.70;99.90;;;;;;4212108;28;20549;-75
2023/04/30 01:23:40;;;;;;;5.67;3.30;;;7.60;99.90;;;;;;4211447;28;20459;-75
2023/04/30 01:25:53;;;;;;;7.57;3.27;;;7.60;99.90;;;;;;4213911;28;20461;-74
2023/04/30 01:28:16;;;;;;;5.33;3.20;;;7.50;99.90;;;;;;4210544;28;20940;-75
2023/04/30 01:30:19;;;;;;;5.03;3.20;;;7.40;99.90;;;;;;4210735;28;20447;-75
2023/04/30 01:32:21;;;;;;;6.10;3.40;;;7.40;99.90;;;;;;4211918;28;20498;-75
2023/04/30 01:34:23;;;;;;;4.07;2.43;;;7.40;99.90;;;;;;4211289;28;20540;-74
2023/04/30 01:36:44;;;;;;;4.60;2.90;;;7.30;99.90;;;;;;4208924;28;20458;-75
2023/04/30 01:39:00;;;;;;;6.23;2.90;;;7.30;99.90;;;;;;4213185;28;21239;-75
2023/04/30 01:41:10;;;;;;;5.80;2.80;;;7.30;99.90;;;;;;4209704;28;20478;-74
2023/04/30 01:43:22;;;;;;;6.10;2.90;;;7.30;99.90;;;;;;4206632;28;20463;-75
2023/04/30 01:45:39;;;;;;;4.37;2.47;;;7.20;99.90;;;;;;4208227;28;20461;-74
2023/04/30 01:47:50;;;;;;;6.93;2.50;;;7.20;99.90;;;;;;4207596;28;20975;-74
2023/04/30 01:49:57;;;;;;;4.50;2.57;;;7.10;99.90;;;;;;4207432;28;20531;-74
2023/04/30 01:52:08;;;;;;;5.77;2.57;;;7.10;99.90;;;;;;4208316;28;20568;-74
2023/04/30 01:54:19;;;;;;;6.20;3.00;;;7.10;99.90;;;;;;4212245;28;20465;-74
2023/04/30 01:56:29;;;;;;;5.20;2.97;;;7.10;99.90;;;;;;4212185;28;20497;-74
2023/04/30 01:58:33;;;;;;;6.60;2.90;;;7.00;99.90;;;;;;4207936;28;21030;-74
2023/04/30 02:00:35;;;;;;;9.33;2.97;;;7.00;99.90;;;;;;4206341;28;20553;-74
2023/04/30 02:02:37;;;;;;;7.77;3.30;;;7.00;99.90;;;;;;4208846;28;20581;-74
2023/04/30 02:04:39;;;;;;;5.43;2.70;;;7.00;99.90;;;;;;4212954;28;20467;-74
2023/04/30 02:06:41;;;;;;;5.47;3.03;;;6.90;99.90;;;;;;4209984;28;20561;-74
2023/04/30 02:08:43;;;;;;;8.80;3.03;;;6.90;99.90;;;;;;4210244;28;20478;-74
2023/04/30 02:10:44;;;;;;;7.13;3.47;;;6.90;99.90;;;;;;4209110;28;20496;-74
2023/04/30 02:12:46;;;;;;;6.23;3.17;;;6.80;99.90;;;;;;4209525;28;20576;-74
2023/04/30 02:14:50;;;;;;;7.33;3.20;;;6.80;99.90;;;;;;4208450;28;20565;-74
2023/04/30 02:16:52;;;;;;;7.93;2.87;;;6.80;99.90;;;;;;4201155;28;20471;-74
2023/04/30 02:18:54;;;;;;;9.43;3.00;;;6.70;99.90;;;;;;4208500;28;21409;-74
2023/04/30 02:20:56;;;;;;;5.53;2.90;;;6.70;99.90;;;;;;4205833;28;20577;-74
2023/04/30 02:22:58;;;;;;;6.10;2.80;;;6.70;99.90;;;;;;4213313;28;20511;-74
2023/04/30 02:25:00;;;;;;;7.30;3.20;;;6.60;99.90;;;;;;4211540;28;20488;-74
2023/04/30 02:27:02;;;;;;;7.07;3.37;;;6.60;99.90;;;;;;4207854;28;20474;-75
2023/04/30 02:29:04;;;;;;;4.90;2.97;;;6.60;99.90;;;;;;4209791;28;20453;-74
2023/04/30 02:31:07;;;;;;;9.03;2.93;;;6.60;99.90;;;;;;4207783;28;20450;-75
2023/04/30 02:33:11;;;;;;;6.73;3.27;;;6.50;99.90;;;;;;4205777;28;20487;-73
2023/04/30 02:35:13;;;;;;;5.67;3.67;;;6.70;99.90;;;;;;4207270;28;20479;-75
2023/04/30 02:37:15;;;;;;;6.90;3.53;;;6.50;99.90;;;;;;4209168;28;20454;-75
2023/04/30 02:39:17;;;;;;;11.80;3.57;;;6.50;99.90;;;;;;4211377;28;20826;-75
2023/04/30 02:41:19;;;;;;;7.50;3.90;;;6.40;99.90;;;;;;4208270;28;20492;-75
2023/04/30 02:43:21;;;;;;;7.93;4.10;;;6.40;99.90;;;;;;4204222;28;20488;-75
2023/04/30 02:45:23;;;;;;;7.17;3.73;;;6.40;99.90;;;;;;4203173;28;20913;-75
2023/04/30 02:47:26;;;;;;;12.83;3.73;;;6.30;99.90;;;;;;4211096;28;20459;-75
2023/04/30 02:49:28;;;;;;;6.30;3.83;;;6.20;99.90;;;;;;4207955;28;20472;-75
2023/04/30 02:51:31;;;;;;;7.37;3.77;;;6.30;99.90;;;;;;4211252;28;20995;-75
2023/04/30 02:53:33;;;;;;;6.27;3.43;;;6.30;99.90;;;;;;4209870;28;20979;-75
2023/04/30 02:55:36;;;;;;;6.93;3.57;;;6.20;99.90;;;;;;4214966;28;20549;-75
2023/04/30 02:57:39;;;;;;;6.90;3.70;;;6.20;99.90;;;;;;4209487;28;20643;-75
2023/04/30 02:59:44;;;;;;;6.63;3.30;;;6.10;99.90;;;;;;4208243;28;20455;-75
2023/04/30 03:01:46;;;;;;;7.43;3.60;;;6.20;99.90;;;;;;4208528;28;21089;-75
2023/04/30 03:03:49;;;;;;;8.03;3.50;;;6.10;99.90;;;;;;4211005;28;20521;-75
2023/04/30 03:05:51;;;;;;;9.33;3.57;;;6.00;99.90;;;;;;4208705;28;21022;-75
2023/04/30 03:07:53;;;;;;;7.83;3.37;;;6.00;99.90;;;;;;4208454;28;20458;-74
2023/04/30 03:09:55;;;;;;;8.23;3.37;;;6.00;99.90;;;;;;4207761;28;20462;-75
2023/04/30 03:11:57;;;;;;;8.03;3.57;;;6.00;99.90;;;;;;4212113;28;21179;-74
2023/04/30 03:13:59;;;;;;;8.93;3.77;;;5.90;99.90;;;;;;4214452;28;20485;-73
2023/04/30 03:16:03;;;;;;;7.63;3.70;;;5.90;99.90;;;;;;4216320;28;20479;-74
2023/04/30 03:18:05;;;;;;;6.57;3.23;;;5.90;99.90;;;;;;4216544;28;20587;-74
2023/04/30 03:20:10;;;;;;;6.37;3.27;;;5.90;99.90;;;;;;4214581;28;20465;-73
2023/04/30 03:22:12;;;;;;;6.43;3.10;;;5.80;99.90;;;;;;4209396;28;20521;-74
2023/04/30 03:24:14;;;;;;;11.17;3.80;;;5.80;99.90;;;;;;4206250;28;20450;-74
2023/04/30 03:26:16;;;;;;;7.93;3.30;;;5.80;99.90;;;;;;4216858;28;20457;-74
2023/04/30 03:28:18;;;;;;;5.17;3.53;;;5.80;99.90;;;;;;4215526;28;20564;-74
2023/04/30 03:30:23;;;;;;;8.77;3.90;;;5.70;99.90;;;;;;4221984;28;20552;-74
2023/04/30 03:32:25;;;;;;;8.13;3.90;;;5.70;99.90;;;;;;4211240;28;20473;-74
2023/04/30 03:34:27;;;;;;;6.93;3.80;;;5.70;99.90;;;;;;4214747;28;20457;-74
2023/04/30 03:36:30;;;;;;;6.37;3.23;;;5.60;99.90;;;;;;4216675;28;20433;-74
2023/04/30 03:38:32;;;;;;;9.53;4.03;;;5.60;99.90;;;;;;4212258;28;20548;-74
2023/04/30 03:40:34;;;;;;;6.93;4.10;;;5.60;99.90;;;;;;4212594;28;20543;-74
2023/04/30 03:42:36;;;;;;;9.93;4.37;;;5.50;99.90;;;;;;4219151;28;20480;-74
2023/04/30 03:44:38;;;;;;;8.23;4.77;;;5.50;99.90;;;;;;4212148;28;20538;-74
2023/04/30 03:46:43;;;;;;;8.27;4.20;;;5.50;99.90;;;;;;4212709;28;20452;-74
2023/04/30 03:48:45;;;;;;;14.40;5.07;;;5.50;99.90;;;;;;4216337;28;20583;-74
2023/04/30 03:50:47;;;;;;;16.00;4.37;;;5.40;99.90;;;;;;4216673;28;20500;-74
2023/04/30 03:52:50;;;;;;;9.83;4.40;;;5.50;99.90;;;;;;4215937;28;20482;-74
2023/04/30 03:54:52;;;;;;;7.63;4.17;;;5.40;99.90;;;;;;4215985;28;20540;-74
2023/04/30 03:56:55;;;;;;;7.57;3.63;;;5.40;99.90;;;;;;4214107;28;20474;-74
2023/04/30 03:58:57;;;;;;;8.97;4.17;;;5.40;99.90;;;;;;4211879;28;20514;-74
2023/04/30 04:00:59;;;;;;;8.30;4.23;;;5.40;99.90;;;;;;4210413;28;20508;-74
2023/04/30 04:03:01;;;;;;;7.87;3.87;;;5.40;99.90;;;;;;4215687;28;20484;-74
2023/04/30 04:05:03;;;;;;;10.30;3.70;;;5.30;99.90;;;;;;4215642;28;20559;-75
2023/04/30 04:07:06;;;;;;;7.93;3.97;;;5.30;99.90;;;;;;4212019;28;20511;-74
2023/04/30 04:09:10;;;;;;;8.87;4.00;;;5.30;99.90;;;;;;4215473;28;20469;-75
2023/04/30 04:11:12;;;;;;;8.07;3.63;;;5.30;99.90;;;;;;4208443;28;20453;-74
2023/04/30 04:13:14;;;;;;;10.03;3.60;;;5.30;99.90;;;;;;4207369;28;21014;-74
2023/04/30 04:15:16;;;;;;;14.97;4.50;;;5.30;99.90;;;;;;4206340;28;20584;-74
2023/04/30 04:17:18;;;;;;;7.53;3.90;;;5.20;99.90;;;;;;4209591;28;20466;-75
2023/04/30 04:19:21;;;;;;;7.90;3.90;;;5.20;99.90;;;;;;4219460;28;21094;-74
2023/04/30 04:21:23;;;;;;;8.30;4.03;;;5.20;99.90;;;;;;4213978;28;20543;-74
2023/04/30 04:23:24;;;;;;;10.40;4.30;;;5.20;99.90;;;;;;4203192;28;20544;-74
2023/04/30 04:25:28;;;;;;;8.00;4.23;;;5.20;99.90;;;;;;4207535;28;20560;-76
2023/04/30 04:27:30;;;;;;;10.37;3.60;;;5.10;99.90;;;;;;4205498;28;20461;-74
2023/04/30 04:29:32;;;;;;;8.07;3.47;;;5.20;99.90;;;;;;4206234;28;20509;-74
2023/04/30 04:31:34;;;;;;;11.83;4.47;;;5.10;99.90;;;;;;4209563;28;20481;-74
2023/04/30 04:33:36;;;;;;;6.23;3.63;;;5.10;99.90;;;;;;4206469;28;20849;-74
2023/04/30 04:35:38;;;;;;;7.27;3.97;;;5.10;99.90;;;;;;4214895;28;20440;-74
2023/04/30 04:37:40;;;;;;;10.00;3.70;;;5.10;99.90;;;;;;4213741;28;20468;-74
2023/04/30 04:39:41;;;;;;;6.70;3.53;;;5.10;99.90;;;;;;4209801;28;20511;-75
2023/04/30 04:41:45;;;;;;;6.97;3.73;;;5.10;99.90;;;;;;4213715;28;20522;-74
2023/04/30 04:43:47;;;;;;;10.03;3.40;;;5.10;99.90;;;;;;4210011;28;20450;-74
2023/04/30 04:45:48;;;;;;;7.63;4.20;;;5.10;99.90;;;;;;4207761;28;20457;-74
2023/04/30 04:47:50;;;;;;;12.70;3.80;;;5.20;99.90;;;;;;4215741;28;20981;-74
2023/04/30 04:49:52;;;;;;;11.87;4.23;;;5.10;99.90;;;;;;4210569;28;21023;-74
2023/04/30 04:51:54;;;;;;;8.80;4.03;;;5.10;99.90;;;;;;4210553;28;20521;-74
2023/04/30 04:53:56;;;;;;;10.63;4.50;;;5.10;99.90;;;;;;4209050;28;20487;-74
2023/04/30 04:55:58;;;;;;;9.33;3.87;;;5.10;99.90;;;;;;4215656;28;20460;-75
2023/04/30 04:58:01;;;;;;;10.50;3.97;;;5.10;99.90;;;;;;4212611;28;20985;-74
2023/04/30 05:00:06;;;;;;;13.50;3.80;;;5.10;99.90;;;;;;4215538;28;20840;-74
2023/04/30 05:02:08;;;;;;;8.80;4.13;;;5.10;99.90;;;;;;4210312;28;20999;-74
2023/04/30 05:04:12;;;;;;;12.93;4.77;;;5.10;99.90;;;;;;4208283;28;20480;-74
2023/04/30 05:06:14;;;;;;;12.30;4.70;;;5.20;99.90;;;;;;4207414;28;20467;-74
2023/04/30 05:08:16;;;;;;;7.30;4.20;;;5.20;99.90;;;;;;4217684;28;20552;-74
2023/04/30 05:10:18;;;;;;;8.00;4.07;;;5.20;99.90;;;;;;4218463;28;20497;-74
2023/04/30 05:12:20;;;;;;;10.60;4.17;;;5.20;99.90;;;;;;4212838;28;20542;-74
2023/04/30 05:14:23;;;;;;;9.83;4.40;;;5.30;99.90;;;;;;4210919;28;21078;-74
2023/04/30 05:16:26;;;;;;;7.87;4.00;;;5.20;99.90;;;;;;4214075;28;20457;-75
2023/04/30 05:18:28;;;;;;;11.23;4.23;;;5.20;99.90;;;;;;4216200;28;20878;-75
2023/04/30 05:20:30;;;;;;;9.27;3.90;;;5.20;99.90;;;;;;4208753;28;20461;-75
2023/04/30 05:22:32;;;;;;;12.67;4.33;;;5.20;99.90;;;;;;4208923;28;20524;-75
2023/04/30 05:24:34;;;;;;;9.57;3.73;;;5.30;99.90;;;;;;4205227;28;20468;-75
2023/04/30 05:26:36;;;;;;;10.27;3.90;;;5.30;99.90;;;;;;4204697;28;21240;-75
2023/04/30 05:28:39;;;;;;;6.50;3.43;;;5.30;99.90;;;;;;4206973;28;20837;-75
2023/04/30 05:30:42;;;;;;;8.77;4.03;;;5.30;99.90;;;;;;4206249;28;21029;-75
2023/04/30 05:32:49;;;;;;;11.57;3.60;;;5.40;99.90;;;;;;4213123;28;20519;-75
2023/04/30 05:34:51;;;;;;;13.63;4.07;;;5.30;99.90;;;;;;4207588;28;20850;-75
2023/04/30 05:36:53;;;;;;;11.63;3.57;;;5.30;99.90;;;;;;4206659;28;20539;-75
2023/04/30 05:38:55;;;;;;;6.37;3.40;;;5.40;99.90;;;;;;4209038;28;20485;-75
2023/04/30 05:40:59;;;;;;;7.67;3.63;;;5.40;99.90;;;;;;4206723;28;20494;-75
2023/04/30 05:43:01;;;;;;;8.13;3.97;;;5.40;99.90;;;;;;4206129;28;20619;-75
2023/04/30 05:45:07;;;;;;;12.33;3.90;;;5.40;99.90;;;;;;4212123;28;20472;-74
2023/04/30 05:47:10;;;;;;;7.90;3.30;;;5.40;99.90;;;;;;4210136;28;21031;-74
2023/04/30 05:49:12;;;;;;;9.93;3.87;;;5.40;99.90;;;;;;4209776;28;20552;-74
2023/04/30 05:51:14;;;;;;;7.37;3.20;;;5.50;99.90;;;;;;4208380;28;20514;-74
2023/04/30 05:53:16;;;;;;;8.13;3.27;;;5.50;99.90;;;;;;4209428;28;20511;-74
2023/04/30 05:55:18;;;;;;;7.83;3.43;;;5.50;99.90;;;;;;4209231;28;21041;-74
2023/04/30 05:57:20;;;;;;;9.40;3.27;;;5.50;99.90;;;;;;4207315;28;20498;-74
2023/04/30 05:59:22;;;;;;;9.30;3.30;;;5.50;99.90;;;;;;4204781;28;21328;-75
2023/04/30 06:01:27;;;;;;;5.50;3.50;;;5.50;99.90;;;;;;4210226;28;20453;-74
2023/04/30 06:03:31;;;;;;;7.53;3.10;;;5.60;99.90;;;;;;4206226;28;20456;-74
2023/04/30 06:05:33;;;;;;;7.23;3.40;;;5.60;99.90;;;;;;4215712;28;20452;-75
2023/04/30 06:07:38;;;;;;;10.50;3.57;;;5.60;99.90;;;;;;4205967;28;20896;-74
2023/04/30 06:09:40;;;;;;;11.53;4.00;;;5.60;99.90;;;;;;4207269;28;20806;-74
2023/04/30 06:11:44;;;;;;;10.73;4.13;;;5.70;99.90;;;;;;4204489;28;20465;-75
2023/04/30 06:13:48;;;;;;;9.27;3.83;;;5.70;99.90;;;;;;4208583;28;20547;-78
2023/04/30 06:15:50;;;;;;;5.53;3.17;;;5.70;99.90;;;;;;4210724;28;20465;-81
2023/04/30 06:17:52;;;;;;;7.90;3.63;;;5.80;99.90;;;;;;4213871;28;20459;-81
2023/04/30 06:19:57;;;;;;;8.20;3.80;;;6.20;99.90;;;;;;4214112;28;20442;-80
2023/04/30 06:21:59;;;;;;;10.57;3.83;;;5.90;99.90;;;;;;4212841;28;20468;-79
2023/04/30 06:24:01;;;;;;;9.67;3.23;;;5.90;99.90;;;;;;4209957;28;20505;-80
2023/04/30 06:26:03;;;;;;;11.83;3.57;;;5.90;99.90;;;;;;4214770;28;20473;-79
2023/04/30 06:28:07;;;;;;;8.80;3.30;;;6.00;99.90;;;;;;4211442;28;20554;-79
2023/04/30 06:30:09;;;;;;;9.83;3.73;;;6.00;99.90;;;;;;4210326;28;20478;-79
2023/04/30 06:32:11;;;;;;;11.53;3.77;;;6.00;99.90;;;;;;4211348;28;20481;-79
2023/04/30 06:34:13;;;;;;;5.00;3.07;;;6.10;99.90;;;;;;4212771;28;20457;-79
2023/04/30 06:36:17;;;;;;;7.30;3.33;;;6.10;99.90;;;;;;4218164;28;20584;-79
2023/04/30 06:38:19;;;;;;;6.80;3.00;;;6.20;99.90;;;;;;4216418;28;20454;-79
2023/04/30 06:40:21;;;;;;;12.93;3.37;;;6.20;99.90;;;;;;4213766;28;20591;-79
2023/04/30 06:42:23;;;;;;;5.00;2.93;;;6.30;99.90;;;;;;4218508;28;20504;-79
2023/04/30 06:44:25;;;;;;;19.93;4.17;;;6.30;99.90;;;;;;4215975;28;20487;-79
2023/04/30 06:46:27;;;;;;;6.40;2.97;;;6.40;99.90;;;;;;4200881;28;20497;-79
2023/04/30 06:48:29;;;;;;;13.23;3.57;;;6.50;99.90;;;;;;4214698;28;20963;-78
2023/04/30 06:50:31;;;;;;;9.37;3.83;;;6.40;99.90;;;;;;4212312;28;20462;-79
2023/04/30 06:52:34;;;;;;;8.80;3.80;;;6.50;99.90;;;;;;4211294;28;20574;-79
2023/04/30 06:54:36;;;;;;;10.53;3.27;;;6.50;99.90;;;;;;4208170;28;20521;-78
2023/04/30 06:56:41;;;;;;;7.80;3.07;;;6.50;99.90;;;;;;4208789;28;20450;-78
2023/04/30 06:58:43;;;;;;;10.03;3.33;;;6.50;99.90;;;;;;4211197;28;20478;-79
2023/04/30 07:00:45;;;;;;;8.07;3.20;;;6.60;99.90;;;;;;4211144;28;20490;-79
2023/04/30 07:02:50;;;;;;;7.20;3.63;;;6.60;99.90;;;;;;4214228;28;20470;-79
2023/04/30 07:04:55;;;;;;;7.23;3.40;;;6.60;99.90;;;;;;4221829;28;20488;-84
2023/04/30 07:07:00;;;;;;;11.47;3.27;;;6.70;99.90;;;;;;4225976;28;20462;-80
2023/04/30 07:09:04;;;;;;;9.77;3.63;;;6.70;99.90;;;;;;4227188;28;20480;-80
2023/04/30 07:11:06;;;;;;;12.50;3.77;;;6.80;99.90;;;;;;4224053;28;20471;-80
2023/04/30 07:13:08;;;;;;;8.63;3.47;;;6.90;99.90;;;;;;4213309;28;20479;-77
2023/04/30 07:15:10;;;;;;;10.30;3.37;;;6.90;99.90;;;;;;4215335;28;20893;-79
2023/04/30 07:17:15;;;;;;;8.90;3.20;;;7.00;99.90;;;;;;4219577;28;20488;-80
2023/04/30 07:19:17;;;;;;;6.57;3.60;;;7.40;99.90;;;;;;4217774;28;20900;-79
2023/04/30 07:21:19;;;;;;;8.13;3.30;;;7.20;99.90;;;;;;4207387;28;20463;-76
2023/04/30 07:23:21;;;;;;;7.73;3.57;;;7.30;99.90;;;;;;4212711;28;20459;-76
2023/04/30 07:25:24;;;;;;;8.17;3.30;;;7.30;99.90;;;;;;4205278;28;20910;-78
2023/04/30 07:27:27;;;;;;;9.13;3.30;;;7.40;99.90;;;;;;4210821;28;20523;-77
2023/04/30 07:29:29;;;;;;;8.07;3.20;;;7.40;99.90;;;;;;4203020;28;20555;-77
2023/04/30 07:31:32;;;;;;;11.20;3.90;;;7.50;99.90;;;;;;4210084;28;20929;-77
2023/04/30 07:33:34;;;;;;;6.57;3.00;;;7.50;99.90;;;;;;4211807;28;20458;-79
2023/04/30 07:35:36;;;;;;;11.13;3.63;;;7.60;99.90;;;;;;4205574;28;20556;-80
2023/04/30 07:37:38;;;;;;;9.80;4.03;;;7.60;99.90;;;;;;4213806;28;20443;-78
2023/04/30 07:39:40;;;;;;;12.60;3.80;;;7.80;99.90;;;;;;4206209;28;20470;-77
2023/04/30 07:41:43;;;;;;;7.37;3.50;;;7.80;99.90;;;;;;4204091;28;20343;-76
2023/04/30 07:43:45;;;;;;;12.70;3.70;;;7.90;99.90;;;;;;4214812;28;20197;-80
2023/04/30 07:45:48;;;;;;;8.57;3.77;;;8.00;99.90;;;;;;4209556;28;20439;-80
2023/04/30 07:47:50;;;;;;;10.23;3.60;;;8.10;99.90;;;;;;4210539;28;20472;-79
2023/04/30 07:49:52;;;;;;;10.40;3.33;;;8.30;99.90;;;;;;4210273;28;20213;-79
2023/04/30 07:51:55;;;;;;;8.53;3.23;;;8.20;99.90;;;;;;4207487;28;20321;-78
2023/04/30 07:53:57;;;;;;;7.03;3.10;;;8.20;99.90;;;;;;4210509;28;20216;-79
2023/04/30 07:55:58;;;;;;;12.80;3.23;;;8.10;99.90;;;;;;4210973;28;20502;-79
2023/04/30 07:58:02;;;;;;;5.90;2.80;;;8.40;99.90;;;;;;4203126;28;20198;-79
2023/04/30 08:00:06;;;;;;;8.63;3.80;;;8.30;99.90;;;;;;4216590;28;20235;-79
2023/04/30 08:02:09;;;;;;;6.97;3.10;;;8.30;99.90;;;;;;4213215;28;20233;-79
2023/04/30 08:04:11;;;;;;;5.90;2.80;;;8.20;99.90;;;;;;4207552;28;20293;-78
2023/04/30 08:06:13;;;;;;;10.47;3.37;;;8.30;99.90;;;;;;4214338;28;20239;-78
2023/04/30 08:08:18;;;;;;;7.40;3.00;;;8.30;99.90;;;;;;4210040;28;20262;-79
2023/04/30 08:10:20;;;;;;;8.37;2.63;;;8.40;99.90;;;;;;4211266;28;20589;-78
2023/04/30 08:12:22;;;;;;;6.33;3.03;;;8.40;99.90;;;;;;4212622;28;20474;-79
2023/04/30 08:14:25;;;;;;;14.03;5.10;;;8.40;99.90;;;;;;4214114;28;20214;-79
2023/04/30 08:16:27;;;;;;;9.63;4.10;;;8.40;99.90;;;;;;4215252;28;20447;-79
2023/04/30 08:18:30;;;;;;;9.73;3.70;;;8.40;99.90;;;;;;4210406;28;20566;-78
2023/04/30 08:20:34;;;;;;;5.83;3.00;;;8.40;99.90;;;;;;4211613;28;21310;-79
2023/04/30 08:22:36;;;;;;;8.97;3.13;;;8.40;99.90;;;;;;4209017;28;20221;-78
2023/04/30 08:24:38;;;;;;;6.07;3.03;;;8.30;99.90;;;;;;4209582;28;20460;-78
2023/04/30 08:26:40;;;;;;;7.30;2.90;;;8.40;99.90;;;;;;4211022;28;20491;-79
2023/04/30 08:28:42;;;;;;;6.00;2.67;;;8.50;99.90;;;;;;4209238;28;20209;-79
2023/04/30 08:30:45;;;;;;;8.80;2.50;;;8.50;99.90;;;;;;4207887;28;20874;-78
2023/04/30 08:32:48;;;;;;;6.77;2.80;;;8.60;99.90;;;;;;4212744;28;20516;-78
2023/04/30 08:34:50;;;;;;;5.60;2.77;;;8.50;99.90;;;;;;4210253;28;20517;-79
2023/04/30 08:36:55;;;;;;;7.37;2.47;;;8.60;99.90;;;;;;4213651;28;20463;-78
2023/04/30 08:38:57;;;;;;;6.83;2.30;;;8.60;99.90;;;;;;4206619;28;20209;-79
2023/04/30 08:41:09;;;;;;;5.77;2.13;;;8.60;99.90;;;;;;4213839;28;20221;-78
2023/04/30 08:43:12;;;;;;;5.77;2.40;;;8.70;99.90;;;;;;4212903;28;20229;-79
2023/04/30 08:45:15;;;;;;;6.97;2.60;;;8.70;99.90;;;;;;4211030;28;20229;-79
2023/04/30 08:47:20;;;;;;;13.83;2.33;;;8.80;99.90;;;;;;4210779;28;20650;-78
2023/04/30 08:49:23;;;;;;;6.40;2.67;;;8.70;99.90;;;;;;4211614;28;20732;-79
2023/04/30 08:51:26;;;;;;;5.47;2.13;;;8.70;99.90;;;;;;4214209;28;20220;-79
2023/04/30 08:53:29;;;;;;;6.23;2.30;;;8.80;99.90;;;;;;4211530;28;20846;-78
2023/04/30 08:55:33;;;;;;;9.73;2.33;;;8.80;99.90;;;;;;4219102;28;20225;-79
2023/04/30 08:57:36;;;;;;;7.30;2.83;;;8.80;99.90;;;;;;4210266;28;20216;-78
2023/04/30 08:59:39;;;;;;;6.87;2.30;;;8.80;99.90;;;;;;4210418;28;20201;-79
2023/04/30 09:01:41;;;;;;;4.73;2.20;;;8.90;99.90;;;;;;4209209;28;20320;-78
2023/04/30 09:03:44;;;;;;;8.43;2.43;;;8.90;99.90;;;;;;4217746;28;20297;-79
2023/04/30 09:05:46;;;;;;;8.17;2.63;;;8.90;99.90;;;;;;4204391;28;20206;-79
2023/04/30 09:07:48;;;;;;;8.07;2.40;;;9.00;99.90;;;;;;4211388;28;20211;-79
2023/04/30 09:09:53;;;;;;;5.13;1.80;;;9.00;99.90;;;;;;4211180;28;20605;-78
2023/04/30 09:12:12;;;;;;;5.40;1.67;;;9.10;99.90;;;;;;4209167;28;20884;-78
2023/04/30 09:14:23;;;;;;;5.30;2.20;;;9.10;99.90;;;;;;4214293;28;20209;-78
2023/04/30 09:16:26;;;;;;;5.07;2.00;;;9.10;99.90;;;;;;4210601;28;20319;-78
2023/04/30 09:18:29;;;;;;;9.80;2.47;;;9.10;99.90;;;;;;4211293;28;20214;-78
2023/04/30 09:20:32;;;;;;;7.37;2.07;;;9.20;99.90;;;;;;4207846;28;20237;-78
2023/04/30 09:22:35;;;;;;;6.80;2.30;;;9.20;99.90;;;;;;4211623;28;20316;-79
2023/04/30 09:24:47;;;;;;;6.47;2.57;;;9.30;99.90;;;;;;4210696;28;20305;-78
2023/04/30 09:26:49;;;;;;;7.53;2.43;;;9.30;99.90;;;;;;4212205;28;20314;-78
2023/04/30 09:28:58;;;;;;;6.23;2.30;;;9.30;99.90;;;;;;4216572;28;20284;-79
2023/04/30 09:31:00;;;;;;;7.73;2.37;;;9.40;99.90;;;;;;4209277;28;20234;-78
2023/04/30 09:33:02;;;;;;;6.27;2.03;;;9.40;99.90;;;;;;4211748;28;20297;-79
2023/04/30 09:35:04;;;;;;;5.70;2.50;;;9.50;99.90;;;;;;4206212;28;20238;-78
2023/04/30 09:37:07;;;;;;;9.20;2.93;;;9.50;99.90;;;;;;4207426;28;20217;-78
2023/04/30 09:39:12;;;;;;;7.57;2.37;;;9.60;99.90;;;;;;4202604;28;20213;-79
2023/04/30 09:41:25;;;;;;;6.53;2.23;;;9.60;99.90;;;;;;4210322;28;20197;-78
2023/04/30 09:43:27;;;;;;;5.37;1.63;;;9.70;99.90;;;;;;4210420;28;20648;-79
2023/04/30 09:45:40;;;;;;;9.43;2.27;;;9.80;99.90;;;;;;4207979;28;20874;-78
2023/04/30 09:47:44;;;;;;;5.50;2.00;;;9.80;99.90;;;;;;4212372;28;20703;-79
2023/04/30 09:49:50;;;;;;;4.40;2.10;;;10.00;99.90;;;;;;4210747;28;20210;-78
2023/04/30 09:51:56;;;;;;;9.07;2.50;;;10.10;99.90;;;;;;4210353;28;20240;-78
2023/04/30 09:54:03;;;;;;;6.47;2.27;;;10.10;99.90;;;;;;4208627;28;20219;-78
2023/04/30 09:56:07;;;;;;;12.90;2.53;;;10.10;99.90;;;;;;4209132;28;20248;-78
2023/04/30 09:58:11;;;;;;;8.47;2.30;;;10.20;99.90;;;;;;4209620;28;20219;-78
2023/04/30 10:00:15;;;;;;;4.63;1.90;;;10.20;99.90;;;;;;4210908;28;20212;-78
2023/04/30 10:02:18;;;;;;;5.63;1.83;;;10.30;99.90;;;;;;4208635;28;20317;-78
2023/04/30 10:04:21;;;;;;;5.13;1.80;;;10.30;99.90;;;;;;4211171;28;20212;-78
2023/04/30 10:06:24;;;;;;;6.50;2.13;;;10.30;99.90;;;;;;4212183;28;20212;-78
2023/04/30 10:08:28;;;;;;;5.37;2.00;;;10.40;99.90;;;;;;4204762;28;20206;-78
2023/04/30 10:10:32;;;;;;;4.53;2.00;;;10.40;99.90;;;;;;4208922;28;20719;-78
2023/04/30 10:12:40;;;;;;;4.07;1.97;;;10.50;99.90;;;;;;4206737;28;20338;-78
2023/04/30 10:14:50;;;;;;;6.10;1.87;;;10.60;99.90;;;;;;4205542;28;20220;-78
2023/04/30 10:16:56;;;;;;;4.83;2.03;;;10.70;99.90;;;;;;4208093;28;20235;-79
2023/04/30 10:19:03;;;;;;;5.40;1.90;;;10.70;99.90;;;;;;4208979;28;20219;-79
2023/04/30 10:21:11;;;;;;;6.60;2.03;;;10.70;99.90;;;;;;4202850;28;20207;-78
2023/04/30 10:23:13;;;;;;;6.30;2.10;;;10.80;99.90;;;;;;4208576;28;20626;-78
2023/04/30 10:25:15;;;;;;;5.40;2.00;;;10.80;99.90;;;;;;4211870;28;20710;-78
2023/04/30 10:27:20;;;;;;;8.13;2.20;;;10.80;99.90;;;;;;4208835;28;20301;-78
2023/04/30 10:29:22;;;;;;;7.47;2.30;;;11.00;99.90;;;;;;4202658;28;20235;-78
2023/04/30 10:31:24;;;;;;;7.40;2.30;;;11.00;99.90;;;;;;4208102;28;20211;-78
2023/04/30 10:33:34;;;;;;;3.87;2.00;;;11.10;99.90;;;;;;4208468;28;20213;-78
2023/04/30 10:35:45;;;;;;;5.13;1.93;;;11.10;99.90;;;;;;4212081;28;20690;-78
2023/04/30 10:37:53;;;;;;;4.77;1.87;;;11.30;99.90;;;;;;4212525;28;20204;-78
2023/04/30 10:39:55;;;;;;;3.77;1.90;;;11.30;99.90;;;;;;4208266;28;20212;-79
2023/04/30 10:42:02;;;;;;;6.23;2.00;;;11.40;99.90;;;;;;4209560;28;20233;-78
2023/04/30 10:44:08;;;;;;;6.50;1.97;;;11.50;99.90;;;;;;4210819;28;20216;-79
2023/04/30 10:46:10;;;;;;;8.93;2.93;;;11.70;99.90;;;;;;4212829;28;20205;-79
2023/04/30 10:48:14;;;;;;;6.33;2.17;;;11.80;99.90;;;;;;4211713;28;20688;-79
2023/04/30 10:50:16;;;;;;;5.53;1.90;;;11.90;99.90;;;;;;4204095;28;20209;-79